createdAt,value
2019-03-15T00:03:07.573Z,100096.33
2019-03-15T00:09:13.424Z,100102.49
2019-03-15T00:15:19.202Z,100119.08
2019-03-15T00:21:25.096Z,100128.23
2019-03-15T00:27:30.823Z,100132.17
2019-03-15T00:33:36.642Z,100130.39
2019-03-15T00:39:42.595Z,100135.22
2019-03-15T00:45:48.610Z,100122.55
2019-03-15T00:51:54.432Z,100152.70
2019-03-15T00:58:00.224Z,100155.35
2019-03-15T01:04:09.245Z,100138.30
2019-03-15T01:10:13.698Z,100150.52
2019-03-15T01:16:19.484Z,100148.31
2019-03-15T01:22:25.398Z,100138.27
2019-03-15T01:28:31.141Z,100129.95
2019-03-15T01:34:36.868Z,100131.72
2019-03-15T01:40:42.676Z,100132.13
2019-03-15T01:46:48.477Z,100128.20
2019-03-15T01:52:54.511Z,100114.63
2019-03-15T01:59:00.285Z,100109.35
2019-03-15T02:05:06.172Z,100109.36
2019-03-15T02:11:11.903Z,100103.66
2019-03-15T02:17:17.737Z,100095.39
2019-03-15T02:23:23.621Z,100097.15
2019-03-15T02:29:29.544Z,100093.23
2019-03-15T02:35:35.638Z,100094.57
2019-03-15T02:41:41.495Z,100101.16
2019-03-15T02:47:47.252Z,100092.84
2019-03-15T02:53:53.029Z,100086.73
2019-03-15T02:59:58.765Z,100077.54
2019-03-15T03:06:04.476Z,100075.78
2019-03-15T03:12:10.271Z,100082.32
2019-03-15T03:18:16.084Z,100082.30
2019-03-15T03:24:22.203Z,100085.34
2019-03-15T03:30:28.018Z,100060.85
2019-03-15T03:36:33.836Z,100055.60
2019-03-15T03:42:39.557Z,100045.52
2019-03-15T03:48:45.330Z,100052.53
2019-03-15T03:54:51.484Z,100051.66
2019-03-15T04:00:57.411Z,100041.62
2019-03-15T04:07:03.198Z,100031.56
2019-03-15T04:13:08.899Z,100027.22
2019-03-15T04:19:14.793Z,100021.97
2019-03-15T04:25:20.520Z,100014.09
2019-03-15T04:31:26.429Z,100019.38
2019-03-15T04:37:32.376Z,100032.49
2019-03-15T04:43:38.268Z,100032.05
2019-03-15T04:49:44.137Z,100021.10
2019-03-15T04:55:50.211Z,100012.37
2019-03-15T05:01:55.990Z,100017.16
2019-03-15T05:08:01.952Z,100006.22
2019-03-15T05:14:07.867Z,100012.37
2019-03-15T05:20:13.645Z,100000.53
2019-03-15T05:26:19.438Z,99995.25
2019-03-15T05:32:25.196Z,99989.12
2019-03-15T05:38:31.021Z,99983.41
2019-03-15T05:44:36.830Z,99967.69
2019-03-15T05:50:42.543Z,99962.44
2019-03-15T05:56:48.304Z,99958.91
2019-03-15T06:02:54.260Z,99937.88
2019-03-15T06:09:00.164Z,99948.37
2019-03-15T06:15:06.333Z,99944.06
2019-03-15T06:21:12.096Z,99941.36
2019-03-15T06:27:17.908Z,99937.78
2019-03-15T06:33:23.663Z,99927.19
2019-03-15T06:39:29.441Z,99924.52
2019-03-15T06:45:35.210Z,99929.72
2019-03-15T06:51:41.083Z,99924.42
2019-03-15T06:57:47.158Z,99920.48
2019-03-15T07:03:53.192Z,99913.52
2019-03-15T07:09:59.027Z,99903.51
2019-03-15T07:16:04.987Z,99896.05
2019-03-15T07:22:10.789Z,99886.45
2019-03-15T07:28:16.534Z,99875.48
2019-03-15T07:34:22.353Z,99871.95
2019-03-15T07:40:28.128Z,99851.73
2019-03-15T07:46:33.871Z,99821.48
2019-03-15T07:52:39.825Z,99819.25
2019-03-15T07:58:45.577Z,99810.86
2019-03-15T08:04:51.496Z,99798.97
2019-03-15T08:10:58.243Z,99789.77
2019-03-15T08:17:04.334Z,99787.14
2019-03-15T08:23:10.285Z,99774.39
2019-03-15T08:29:16.015Z,99780.05
2019-03-15T08:35:24.392Z,99794.45
2019-03-15T08:41:29.570Z,99776.95
2019-03-15T08:47:35.734Z,99770.72
2019-03-15T08:53:41.552Z,99796.54
2019-03-15T08:59:55.530Z,99797.39
2019-03-15T09:05:55.153Z,99776.61
2019-03-15T09:12:01.015Z,99786.98
2019-03-15T09:18:06.910Z,99800.03
2019-03-15T09:24:13.398Z,99794.32
2019-03-15T09:30:24.175Z,99794.16
2019-03-15T09:36:27.296Z,99787.36
2019-03-15T09:42:33.061Z,99782.30
2019-03-15T09:48:38.947Z,99769.39
2019-03-15T09:54:44.771Z,99766.08
2019-03-15T10:00:50.607Z,99767.55
2019-03-15T10:06:56.915Z,99785.23
2019-03-15T10:13:06.282Z,99775.32
2019-03-15T10:19:10.378Z,99784.66
2019-03-15T10:25:16.203Z,99784.37
2019-03-15T10:31:22.071Z,99789.31
2019-03-15T10:37:27.801Z,99788.98
2019-03-15T10:43:33.676Z,99796.63
2019-03-15T10:49:39.416Z,99806.48
2019-03-15T10:55:59.092Z,99804.60
2019-03-15T11:01:54.069Z,99804.84
2019-03-15T11:08:00.132Z,99811.65
2019-03-15T11:14:05.930Z,99817.45
2019-03-15T11:20:12.320Z,99820.61
2019-03-15T11:26:18.265Z,99837.53
2019-03-15T11:32:24.110Z,99849.92
2019-03-15T11:38:29.943Z,99834.91
2019-03-15T11:44:35.760Z,99838.93
2019-03-15T11:50:41.531Z,99839.76
2019-03-15T11:56:50.613Z,99831.97
2019-03-15T12:02:57.072Z,99823.16
2019-03-15T12:09:02.958Z,99821.50
2019-03-15T12:15:10.103Z,99828.50
2019-03-15T12:21:15.853Z,99821.14
2019-03-15T12:27:21.680Z,99818.23
2019-03-15T12:33:28.783Z,99826.16
2019-03-15T12:39:34.682Z,99831.81
2019-03-15T12:45:40.689Z,99846.81
2019-03-15T12:51:46.794Z,99833.98
2019-03-15T12:57:52.753Z,99821.31
2019-03-15T13:03:58.715Z,99812.88
2019-03-15T13:10:04.584Z,99803.92
2019-03-15T13:16:10.623Z,99803.87
2019-03-15T13:22:16.367Z,99806.09
2019-03-15T13:28:22.162Z,99811.17
2019-03-15T13:34:28.145Z,99813.00
2019-03-15T13:40:33.865Z,99817.13
2019-03-15T13:46:39.638Z,99816.27
2019-03-15T13:52:45.485Z,99816.23
2019-03-15T13:58:57.125Z,99798.20
2019-03-15T14:04:58.771Z,99819.44
2019-03-15T14:11:04.675Z,99784.72
2019-03-15T14:17:10.841Z,99798.22
2019-03-15T14:23:16.802Z,99803.85
2019-03-15T14:29:22.939Z,99799.67
2019-03-15T14:35:28.847Z,99799.35
2019-03-15T14:41:34.804Z,99806.97
2019-03-15T14:47:40.697Z,99812.45
2019-03-15T14:53:46.607Z,99820.92
2019-03-15T14:59:52.514Z,99809.34
2019-03-15T15:05:58.322Z,99812.34
2019-03-15T15:12:04.098Z,99824.49
2019-03-15T15:18:09.988Z,99820.84
2019-03-15T15:24:16.074Z,99804.89
2019-03-15T15:30:21.848Z,99820.23
2019-03-15T15:36:27.774Z,99803.92
2019-03-15T15:42:33.912Z,99796.06
2019-03-15T15:48:39.729Z,99813.48
2019-03-15T15:54:45.580Z,99834.79
2019-03-15T16:00:51.643Z,99830.38
2019-03-15T16:06:57.404Z,99823.91
2019-03-15T16:13:16.545Z,99794.80
2019-03-15T16:19:11.219Z,99804.65
2019-03-15T16:25:17.070Z,99820.34
2019-03-15T16:31:22.909Z,99821.69
2019-03-15T16:37:29.006Z,99814.72
2019-03-15T16:43:35.106Z,99807.35
2019-03-15T16:49:40.922Z,99806.74
2019-03-15T16:55:46.762Z,99809.45
2019-03-15T17:01:54.294Z,99875.76
2019-03-15T17:08:00.365Z,99876.16
2019-03-15T17:14:06.268Z,99878.63
2019-03-15T17:20:12.665Z,99906.33
2019-03-15T17:26:18.585Z,99905.27
2019-03-15T17:32:24.415Z,99922.93
2019-03-15T17:38:30.169Z,99927.88
2019-03-15T17:44:36.121Z,99945.48
2019-03-15T17:50:42.011Z,99962.75
2019-03-15T17:56:47.833Z,99986.59
2019-03-15T18:02:53.576Z,100009.00
2019-03-15T18:08:59.817Z,100033.94
2019-03-15T18:15:06.069Z,100045.29
2019-03-15T18:21:12.159Z,100066.98
2019-03-15T18:27:17.943Z,100066.59
2019-03-15T18:33:23.850Z,100059.59
2019-03-15T18:39:29.721Z,100048.68
2019-03-15T18:45:35.476Z,100051.72
2019-03-15T18:51:41.419Z,100082.38
2019-03-15T18:57:47.554Z,100109.59
2019-03-15T19:03:53.384Z,100131.94
2019-03-15T19:09:59.239Z,100128.87
2019-03-15T19:16:05.291Z,100139.38
2019-03-15T19:22:11.112Z,100144.23
2019-03-15T19:28:18.199Z,100146.83
2019-03-15T19:34:24.639Z,100162.61
2019-03-15T19:40:30.748Z,100151.63
2019-03-15T19:46:36.613Z,100164.78
2019-03-15T19:52:42.417Z,100185.87
2019-03-15T19:58:48.433Z,100196.39
2019-03-15T20:04:54.475Z,100208.69
2019-03-15T20:11:00.399Z,100232.89
2019-03-15T20:17:06.328Z,100249.13
2019-03-15T20:23:12.293Z,100260.06
2019-03-15T20:29:18.188Z,100255.70
2019-03-15T20:35:24.123Z,100255.22
2019-03-15T20:41:29.983Z,100269.23
2019-03-15T20:47:36.309Z,100271.00
2019-03-15T20:53:42.363Z,100266.19
2019-03-15T20:59:48.197Z,100282.01
2019-03-15T21:05:55.646Z,100270.59
2019-03-15T21:12:01.585Z,100271.45
2019-03-15T21:18:07.680Z,100281.10
2019-03-15T21:24:13.738Z,100281.06
2019-03-15T21:30:20.035Z,100278.92
2019-03-15T21:36:26.180Z,100273.25
2019-03-15T21:42:32.123Z,100292.14
2019-03-15T21:48:38.498Z,100301.34
2019-03-15T21:54:44.347Z,100325.02
2019-03-15T22:01:01.594Z,100328.52
2019-03-15T22:06:59.052Z,100329.80
2019-03-15T22:13:04.939Z,100342.91
2019-03-15T22:19:10.843Z,100346.86
2019-03-15T22:25:16.847Z,100349.04
2019-03-15T22:31:22.751Z,100349.45
2019-03-15T22:37:28.540Z,100349.91
2019-03-15T22:43:34.380Z,100356.03
2019-03-15T22:49:40.207Z,100374.44
2019-03-15T22:55:45.937Z,100359.49
2019-03-15T23:01:51.749Z,100365.20
2019-03-15T23:07:57.669Z,100384.90
2019-03-15T23:14:03.570Z,100399.78
2019-03-15T23:20:09.655Z,100400.65
2019-03-15T23:26:15.545Z,100407.27
2019-03-15T23:32:21.268Z,100423.47
2019-03-15T23:38:27.034Z,100409.00
2019-03-15T23:44:32.794Z,100407.20
2019-03-15T23:50:38.566Z,100408.97
2019-03-15T23:56:44.459Z,100406.72
